createdAt,value
2019-05-18T00:02:14.575Z,86.42
2019-05-18T00:04:43.015Z,87.04
2019-05-18T00:07:11.439Z,86.46
2019-05-18T00:09:39.876Z,87.09
2019-05-18T00:12:08.344Z,86.77
2019-05-18T00:14:36.787Z,86.47
2019-05-18T00:17:07.969Z,86.66
2019-05-18T00:19:35.379Z,86.40
2019-05-18T00:22:03.804Z,86.54
2019-05-18T00:24:32.243Z,87.22
2019-05-18T00:27:00.667Z,87.07
2019-05-18T00:29:29.153Z,87.64
2019-05-18T00:31:57.671Z,87.48
2019-05-18T00:34:26.115Z,87.13
2019-05-18T00:36:54.555Z,87.48
2019-05-18T00:39:23.138Z,87.95
2019-05-18T00:41:51.662Z,87.81
2019-05-18T00:44:20.218Z,87.90
2019-05-18T00:46:48.684Z,87.58
2019-05-18T00:49:17.155Z,87.68
2019-05-18T00:51:45.699Z,88.31
2019-05-18T00:54:17.092Z,87.91
2019-05-18T00:56:45.658Z,87.54
2019-05-18T00:59:16.052Z,87.88
2019-05-18T01:01:44.448Z,87.54
2019-05-18T01:04:13.010Z,87.66
2019-05-18T01:06:41.505Z,87.92
2019-05-18T01:09:10.011Z,87.85
2019-05-18T01:11:38.535Z,87.86
2019-05-18T01:14:07.248Z,87.79
2019-05-18T01:16:37.275Z,88.43
2019-05-18T01:19:05.800Z,88.09
2019-05-18T01:21:34.297Z,88.42
2019-05-18T01:24:02.779Z,88.32
2019-05-18T01:26:31.349Z,88.77
2019-05-18T01:29:05.020Z,88.72
2019-05-18T01:31:34.996Z,88.64
2019-05-18T01:34:03.582Z,88.18
2019-05-18T01:36:32.124Z,88.38
2019-05-18T01:39:00.529Z,88.50
2019-05-18T01:41:28.970Z,88.28
2019-05-18T01:43:57.432Z,88.75
2019-05-18T01:46:25.859Z,89.10
2019-05-18T01:48:54.292Z,88.98
2019-05-18T01:51:22.775Z,88.71
2019-05-18T01:53:51.325Z,88.20
2019-05-18T01:56:19.831Z,88.16
2019-05-18T01:58:48.332Z,88.21
2019-05-18T02:01:16.797Z,88.21
2019-05-18T02:03:47.333Z,88.68
2019-05-18T02:06:15.808Z,88.65
2019-05-18T02:08:47.240Z,88.76
2019-05-18T02:11:15.740Z,88.54
2019-05-18T02:13:44.295Z,88.67
2019-05-18T02:16:12.905Z,88.51
2019-05-18T02:18:41.420Z,88.72
2019-05-18T02:21:11.758Z,88.49
2019-05-18T02:23:44.664Z,88.85
2019-05-18T02:26:13.328Z,88.56
2019-05-18T02:28:44.971Z,88.16
2019-05-18T02:31:13.347Z,88.09
2019-05-18T02:33:41.876Z,88.26
2019-05-18T02:36:12.466Z,88.52
2019-05-18T02:38:40.930Z,88.83
2019-05-18T02:41:09.363Z,88.88
2019-05-18T02:43:39.418Z,88.97
2019-05-18T02:46:07.877Z,89.31
2019-05-18T02:48:49.052Z,89.31
2019-05-18T02:51:10.834Z,89.25
2019-05-18T02:53:36.989Z,89.25
2019-05-18T02:56:05.553Z,89.20
2019-05-18T02:58:34.087Z,89.44
2019-05-18T03:01:02.631Z,89.43
2019-05-18T03:03:31.112Z,90.35
2019-05-18T03:05:59.595Z,89.89
2019-05-18T03:08:28.051Z,90.11
2019-05-18T03:10:56.573Z,90.17
2019-05-18T03:13:25.029Z,90.18
2019-05-18T03:15:53.464Z,90.60
2019-05-18T03:18:21.954Z,90.17
2019-05-18T03:20:50.422Z,90.24
2019-05-18T03:23:18.875Z,89.73
2019-05-18T03:25:47.357Z,90.01
2019-05-18T03:28:15.837Z,89.82
2019-05-18T03:30:44.384Z,89.76
2019-05-18T03:33:13.039Z,89.67
2019-05-18T03:35:41.535Z,90.24
2019-05-18T03:38:10.290Z,90.19
2019-05-18T03:40:38.743Z,89.92
2019-05-18T03:43:08.753Z,89.62
2019-05-18T03:45:37.248Z,90.00
2019-05-18T03:48:05.737Z,89.90
2019-05-18T03:50:35.718Z,89.83
2019-05-18T03:53:04.327Z,89.60
2019-05-18T03:55:32.951Z,90.37
2019-05-18T03:58:01.425Z,90.30
2019-05-18T04:00:29.834Z,91.31
2019-05-18T04:02:58.726Z,90.10
2019-05-18T04:05:27.249Z,90.01
2019-05-18T04:07:55.716Z,89.99
2019-05-18T04:10:26.729Z,90.73
2019-05-18T04:12:55.511Z,90.29
2019-05-18T04:15:23.991Z,89.69
2019-05-18T04:17:52.543Z,89.86
2019-05-18T04:20:21.006Z,89.40
2019-05-18T04:22:49.655Z,89.54
2019-05-18T04:25:18.145Z,89.88
2019-05-18T04:27:46.718Z,90.03
2019-05-18T04:30:15.742Z,89.59
2019-05-18T04:32:44.206Z,89.80
2019-05-18T04:35:13.755Z,89.30
2019-05-18T04:37:42.319Z,89.73
2019-05-18T04:40:11.222Z,89.99
2019-05-18T04:42:39.773Z,90.18
2019-05-18T04:45:09.071Z,90.22
2019-05-18T04:47:37.565Z,90.01
2019-05-18T04:50:08.089Z,89.78
2019-05-18T04:52:36.564Z,89.16
2019-05-18T04:55:06.235Z,89.45
2019-05-18T04:57:34.696Z,89.18
2019-05-18T05:00:03.980Z,89.40
2019-05-18T05:02:32.419Z,89.63
2019-05-18T05:05:00.954Z,89.31
2019-05-18T05:07:29.346Z,89.23
2019-05-18T05:09:57.756Z,89.25
2019-05-18T05:12:26.194Z,89.35
2019-05-18T05:14:54.635Z,88.48
2019-05-18T05:17:24.186Z,88.51
2019-05-18T05:19:52.539Z,88.54
2019-05-18T05:22:21.001Z,87.77
2019-05-18T05:24:49.425Z,88.87
2019-05-18T05:27:17.882Z,88.94
2019-05-18T05:29:49.305Z,88.44
2019-05-18T05:32:17.735Z,88.35
2019-05-18T05:34:46.164Z,87.19
2019-05-18T05:37:14.580Z,86.75
2019-05-18T05:39:43.011Z,86.01
2019-05-18T05:42:11.464Z,85.15
2019-05-18T05:44:42.001Z,84.47
2019-05-18T05:47:11.434Z,86.03
2019-05-18T05:49:44.402Z,85.42
2019-05-18T05:52:12.841Z,86.15
2019-05-18T05:54:46.992Z,85.64
2019-05-18T05:57:15.513Z,85.34
2019-05-18T05:59:48.589Z,84.05
2019-05-18T06:02:20.000Z,82.72
2019-05-18T06:04:51.471Z,81.50
2019-05-18T06:07:23.734Z,81.07
2019-05-18T06:09:53.098Z,80.46
2019-05-18T06:12:22.779Z,82.64
2019-05-18T06:14:51.283Z,82.58
2019-05-18T06:17:21.422Z,81.91
2019-05-18T06:19:49.841Z,82.25
2019-05-18T06:22:18.391Z,82.44
2019-05-18T06:24:52.874Z,81.40
2019-05-18T06:27:23.887Z,81.77
2019-05-18T06:29:54.417Z,80.18
2019-05-18T06:32:23.865Z,79.58
2019-05-18T06:34:54.040Z,77.07
2019-05-18T06:37:22.472Z,77.72
2019-05-18T06:39:50.896Z,76.98
2019-05-18T06:42:22.096Z,76.09
2019-05-18T06:44:50.538Z,75.47
2019-05-18T06:47:21.907Z,75.64
2019-05-18T06:49:52.702Z,75.52
2019-05-18T06:52:20.348Z,76.64
2019-05-18T06:54:50.323Z,74.67
2019-05-18T06:57:19.133Z,73.21
2019-05-18T06:59:47.922Z,74.63
2019-05-18T07:02:18.651Z,74.73
2019-05-18T07:04:47.079Z,72.53
2019-05-18T07:07:15.495Z,73.37
2019-05-18T07:09:43.915Z,70.57
2019-05-18T07:12:12.332Z,71.66
2019-05-18T07:14:40.749Z,69.53
2019-05-18T07:17:09.166Z,71.37
2019-05-18T07:19:38.590Z,70.15
2019-05-18T07:22:06.996Z,69.79
2019-05-18T07:24:35.427Z,67.99
2019-05-18T07:27:03.858Z,68.09
2019-05-18T07:29:32.262Z,67.82
2019-05-18T07:32:00.680Z,67.75
2019-05-18T07:34:31.771Z,68.30
2019-05-18T07:37:00.200Z,67.35
2019-05-18T07:39:28.618Z,65.49
2019-05-18T07:41:57.032Z,63.12
2019-05-18T07:44:25.444Z,63.96
2019-05-18T07:46:53.854Z,62.31
2019-05-18T07:49:22.272Z,61.09
2019-05-18T07:51:50.691Z,61.22
2019-05-18T07:54:19.821Z,63.99
2019-05-18T07:56:48.241Z,60.71
2019-05-18T07:59:19.637Z,60.78
2019-05-18T08:01:46.811Z,59.58
2019-05-18T08:04:15.259Z,61.39
2019-05-18T08:06:43.632Z,59.86
2019-05-18T08:09:12.059Z,58.76
2019-05-18T08:11:40.466Z,58.84
2019-05-18T08:14:08.927Z,60.08
2019-05-18T08:16:37.339Z,57.83
2019-05-18T08:19:05.790Z,59.31
2019-05-18T08:21:35.850Z,59.66
2019-05-18T08:24:04.348Z,59.33
2019-05-18T08:26:33.666Z,57.22
2019-05-18T08:29:02.191Z,54.84
2019-05-18T08:31:33.565Z,54.68
2019-05-18T08:34:01.981Z,53.78
2019-05-18T08:36:33.368Z,51.79
2019-05-18T08:39:01.991Z,51.78
2019-05-18T08:41:30.998Z,51.93
2019-05-18T08:43:59.417Z,51.17
2019-05-18T08:46:28.981Z,49.91
2019-05-18T08:48:57.416Z,47.59
2019-05-18T08:51:25.838Z,48.95
2019-05-18T08:53:54.240Z,50.13
2019-05-18T08:56:22.695Z,50.95
2019-05-18T08:58:51.132Z,49.50
2019-05-18T09:01:19.600Z,50.78
2019-05-18T09:03:49.659Z,50.06
2019-05-18T09:06:18.075Z,50.30
2019-05-18T09:08:46.512Z,46.73
2019-05-18T09:11:14.923Z,48.87
2019-05-18T09:13:44.350Z,48.18
2019-05-18T09:16:12.746Z,46.73
2019-05-18T09:18:41.157Z,48.90
2019-05-18T09:21:09.641Z,48.62
2019-05-18T09:23:38.061Z,49.73
2019-05-18T09:26:06.514Z,47.11
2019-05-18T09:28:34.938Z,47.19
2019-05-18T09:31:03.349Z,47.17
2019-05-18T09:33:31.769Z,48.16
2019-05-18T09:36:00.187Z,45.25
2019-05-18T09:38:28.597Z,46.44
2019-05-18T09:40:57.021Z,48.34
2019-05-18T09:43:25.426Z,52.83
2019-05-18T09:45:53.847Z,51.84
2019-05-18T09:48:22.260Z,50.10
2019-05-18T09:50:50.696Z,47.59
2019-05-18T09:53:21.292Z,50.97
2019-05-18T09:55:49.811Z,51.86
2019-05-18T09:58:18.227Z,49.10
2019-05-18T10:01:02.414Z,50.33
2019-05-18T10:03:30.589Z,52.39
2019-05-18T10:06:06.327Z,49.28
2019-05-18T10:08:34.791Z,48.08
2019-05-18T10:11:07.950Z,46.93
2019-05-18T10:13:40.521Z,48.19
2019-05-18T10:16:09.031Z,44.84
2019-05-18T10:18:39.109Z,47.67
2019-05-18T10:21:07.551Z,46.27
2019-05-18T10:23:35.955Z,49.16
2019-05-18T10:26:04.623Z,47.91
2019-05-18T10:28:33.059Z,49.35
2019-05-18T10:31:05.058Z,50.61
2019-05-18T10:33:38.332Z,46.45
2019-05-18T10:36:19.993Z,47.07
2019-05-18T10:38:45.599Z,47.57
2019-05-18T10:41:18.109Z,46.34
2019-05-18T10:46:53.901Z,49.46
2019-05-18T10:49:25.951Z,47.92
2019-05-18T10:51:58.462Z,44.73
2019-05-18T10:54:26.844Z,43.08
2019-05-18T10:57:02.839Z,43.69
2019-05-18T10:59:35.591Z,43.14
2019-05-18T11:02:08.682Z,45.53
2019-05-18T11:04:37.150Z,40.92
2019-05-18T11:07:05.567Z,43.56
2019-05-18T11:09:34.317Z,45.21
2019-05-18T11:12:04.338Z,40.41
2019-05-18T11:14:32.832Z,41.39
2019-05-18T11:17:01.270Z,40.06
2019-05-18T11:19:29.681Z,40.51
2019-05-18T11:22:01.543Z,41.13
2019-05-18T11:24:30.495Z,40.95
2019-05-18T11:26:58.909Z,40.90
2019-05-18T11:29:27.504Z,41.90
2019-05-18T11:31:59.643Z,40.92
2019-05-18T11:34:44.722Z,43.44
2019-05-18T11:37:13.139Z,42.01
2019-05-18T11:39:41.566Z,42.76
2019-05-18T11:42:21.650Z,40.59
2019-05-18T11:44:50.178Z,41.05
2019-05-18T11:47:25.230Z,42.58
2019-05-18T11:49:53.719Z,42.51
2019-05-18T11:52:35.158Z,41.04
2019-05-18T11:55:04.634Z,39.21
2019-05-18T11:57:39.049Z,39.51
2019-05-18T12:00:10.349Z,40.07
2019-05-18T12:02:38.890Z,34.49
2019-05-18T12:05:14.807Z,39.16
2019-05-18T12:07:45.241Z,37.73
2019-05-18T12:10:14.008Z,33.97
2019-05-18T12:12:42.438Z,31.58
2019-05-18T12:15:15.656Z,31.21
2019-05-18T12:17:48.549Z,30.99
2019-05-18T12:20:19.216Z,31.31
2019-05-18T12:22:47.679Z,30.06
2019-05-18T12:25:17.783Z,31.55
2019-05-18T12:27:50.707Z,30.95
2019-05-18T12:30:19.874Z,32.58
2019-05-18T12:32:48.466Z,34.76
2019-05-18T12:35:17.306Z,31.74
2019-05-18T12:37:47.917Z,33.87
2019-05-18T12:40:18.515Z,35.12
2019-05-18T12:42:46.337Z,30.47
2019-05-18T12:45:15.402Z,30.88
2019-05-18T12:47:43.825Z,28.28
2019-05-18T12:50:14.044Z,27.98
2019-05-18T12:52:42.564Z,31.44
2019-05-18T12:55:12.806Z,29.98
2019-05-18T12:57:44.385Z,31.13
2019-05-18T13:00:15.973Z,31.58
2019-05-18T13:02:46.025Z,27.90
2019-05-18T13:05:14.689Z,30.61
2019-05-18T13:07:43.105Z,33.59
2019-05-18T13:10:13.820Z,33.51
2019-05-18T13:12:42.256Z,34.20
2019-05-18T13:15:12.025Z,36.04
2019-05-18T13:17:40.516Z,35.20
2019-05-18T13:20:10.416Z,31.45
2019-05-18T13:22:39.044Z,31.53
2019-05-18T13:25:08.290Z,33.03
2019-05-18T13:27:39.778Z,30.57
2019-05-18T13:30:09.394Z,29.94
2019-05-18T13:32:37.804Z,30.88
2019-05-18T13:35:07.256Z,33.39
2019-05-18T13:37:35.676Z,32.50
2019-05-18T13:40:07.397Z,30.47
2019-05-18T13:42:35.827Z,32.04
2019-05-18T13:45:06.629Z,32.77
2019-05-18T13:47:35.047Z,34.87
2019-05-18T13:50:03.670Z,34.65
2019-05-18T13:52:33.744Z,34.27
2019-05-18T13:55:04.839Z,36.62
2019-05-18T13:57:33.997Z,35.97
2019-05-18T14:00:02.362Z,37.86
2019-05-18T14:02:30.788Z,38.22
2019-05-18T14:04:59.251Z,37.55
2019-05-18T14:07:27.739Z,37.72
2019-05-18T14:09:57.456Z,36.83
2019-05-18T14:12:25.865Z,37.80
2019-05-18T14:14:54.312Z,37.82
2019-05-18T14:17:22.714Z,37.45
2019-05-18T14:19:51.289Z,38.12
2019-05-18T14:22:19.726Z,37.73
2019-05-18T14:24:48.157Z,37.51
2019-05-18T14:27:16.600Z,37.53
2019-05-18T14:29:45.169Z,38.12
2019-05-18T14:32:13.626Z,38.75
2019-05-18T14:34:42.081Z,39.85
2019-05-18T14:37:10.640Z,41.39
2019-05-18T14:39:39.165Z,38.41
2019-05-18T14:42:07.657Z,39.75
2019-05-18T14:44:36.140Z,39.21
2019-05-18T14:47:11.426Z,39.55
2019-05-18T14:49:39.585Z,39.77
2019-05-18T14:52:12.066Z,39.14
2019-05-18T14:54:40.873Z,39.37
2019-05-18T14:57:09.386Z,38.83
2019-05-18T14:59:37.872Z,39.39
2019-05-18T15:02:06.412Z,40.05
2019-05-18T15:04:36.381Z,39.20
2019-05-18T15:07:04.948Z,39.50
2019-05-18T15:09:35.035Z,39.50
2019-05-18T15:12:03.473Z,40.22
2019-05-18T15:14:35.074Z,39.22
2019-05-18T15:17:03.527Z,39.55
2019-05-18T15:19:31.959Z,40.16
2019-05-18T15:22:00.440Z,39.53
2019-05-18T15:24:28.890Z,39.07
2019-05-18T15:26:59.098Z,38.59
2019-05-18T15:29:32.212Z,39.70
2019-05-18T15:32:02.307Z,38.92
2019-05-18T15:34:30.764Z,39.97
2019-05-18T15:36:59.159Z,39.44
2019-05-18T15:39:28.363Z,40.48
2019-05-18T15:41:56.833Z,40.43
2019-05-18T15:44:25.284Z,40.52
2019-05-18T15:46:53.694Z,41.07
2019-05-18T15:49:22.119Z,40.18
2019-05-18T15:51:50.573Z,39.90
2019-05-18T15:54:19.021Z,40.53
2019-05-18T15:56:47.473Z,40.63
2019-05-18T15:59:20.007Z,40.21
2019-05-18T16:01:48.490Z,40.88
2019-05-18T16:04:16.974Z,41.56
2019-05-18T16:06:45.483Z,40.46
2019-05-18T16:09:13.892Z,40.70
2019-05-18T16:11:46.725Z,40.39
2019-05-18T16:14:16.669Z,40.08
2019-05-18T16:16:45.197Z,40.55
2019-05-18T16:19:14.281Z,40.33
2019-05-18T16:21:42.786Z,41.15
2019-05-18T16:24:11.275Z,40.91
2019-05-18T16:26:39.753Z,40.94
2019-05-18T16:29:08.210Z,41.72
2019-05-18T16:31:36.691Z,41.26
2019-05-18T16:34:05.266Z,43.22
2019-05-18T16:36:33.947Z,42.88
2019-05-18T16:39:05.434Z,42.90
2019-05-18T16:41:33.974Z,42.15
2019-05-18T16:44:04.199Z,41.86
2019-05-18T16:46:32.612Z,43.28
2019-05-18T16:49:02.638Z,41.91
2019-05-18T16:51:33.143Z,42.11
2019-05-18T16:54:01.737Z,42.12
2019-05-18T16:56:35.095Z,41.18
2019-05-18T16:59:00.349Z,42.01
2019-05-18T17:01:28.894Z,43.12
2019-05-18T17:03:57.352Z,41.55
2019-05-18T17:06:25.808Z,41.69
2019-05-18T17:08:54.264Z,41.82
2019-05-18T17:11:22.683Z,41.64
2019-05-18T17:13:51.237Z,40.49
2019-05-18T17:16:19.641Z,40.95
2019-05-18T17:18:58.921Z,40.73
2019-05-18T17:21:27.399Z,40.94
2019-05-18T17:23:58.644Z,41.86
2019-05-18T17:26:34.019Z,40.25
2019-05-18T17:29:02.535Z,40.82
2019-05-18T17:31:31.097Z,40.89
2019-05-18T17:33:59.568Z,40.24
2019-05-18T17:36:28.084Z,40.57
2019-05-18T17:38:56.538Z,40.08
2019-05-18T17:41:25.049Z,39.46
2019-05-18T17:43:53.499Z,40.63
2019-05-18T17:46:21.931Z,39.72
2019-05-18T17:48:50.538Z,39.73
2019-05-18T17:51:19.059Z,40.16
2019-05-18T17:53:47.461Z,40.13
2019-05-18T17:56:15.938Z,40.13
2019-05-18T17:58:44.351Z,40.09
2019-05-18T18:01:12.800Z,40.79
2019-05-18T18:03:41.239Z,39.87
2019-05-18T18:06:09.707Z,39.70
2019-05-18T18:08:38.121Z,40.64
2019-05-18T18:11:06.573Z,41.17
2019-05-18T18:13:35.157Z,40.78
2019-05-18T18:16:03.713Z,40.69
2019-05-18T18:18:34.879Z,40.11
2019-05-18T18:21:02.462Z,41.04
2019-05-18T18:23:30.950Z,41.56
2019-05-18T18:25:59.359Z,41.05
2019-05-18T18:28:27.798Z,41.73
2019-05-18T18:30:56.284Z,42.04
2019-05-18T18:33:24.762Z,43.29
2019-05-18T18:35:57.009Z,43.41
2019-05-18T18:38:25.522Z,43.67
2019-05-18T18:40:56.545Z,44.72
2019-05-18T18:43:35.215Z,44.35
2019-05-18T18:46:03.722Z,45.94
2019-05-18T18:48:32.165Z,45.57
2019-05-18T18:51:00.696Z,47.49
2019-05-18T18:53:29.095Z,47.08
2019-05-18T18:55:57.648Z,46.63
2019-05-18T18:58:26.103Z,46.53
2019-05-18T19:00:54.616Z,46.62
2019-05-18T19:03:23.062Z,47.29
2019-05-18T19:05:53.616Z,47.29
2019-05-18T19:08:22.084Z,47.93
2019-05-18T19:10:50.523Z,48.00
2019-05-18T19:13:18.985Z,48.02
2019-05-18T19:15:50.571Z,47.96
2019-05-18T19:18:19.048Z,47.75
2019-05-18T19:20:47.496Z,48.16
2019-05-18T19:23:16.105Z,48.24
2019-05-18T19:25:44.503Z,48.46
2019-05-18T19:28:13.164Z,49.03
2019-05-18T19:30:41.864Z,49.02
2019-05-18T19:33:10.338Z,49.56
2019-05-18T19:35:41.599Z,49.79
2019-05-18T19:38:10.071Z,49.96
2019-05-18T19:40:38.587Z,50.62
2019-05-18T19:43:07.135Z,50.71
2019-05-18T19:45:35.672Z,50.58
2019-05-18T19:48:04.478Z,50.94
2019-05-18T19:50:33.149Z,51.28
2019-05-18T19:53:01.579Z,51.41
2019-05-18T19:55:30.037Z,52.31
2019-05-18T19:58:11.650Z,52.73
2019-05-18T20:00:40.084Z,53.08
2019-05-18T20:03:09.498Z,54.92
2019-05-18T20:05:37.966Z,52.76
2019-05-18T20:08:06.466Z,52.37
2019-05-18T20:10:34.918Z,53.08
2019-05-18T20:13:13.387Z,52.17
2019-05-18T20:15:41.811Z,52.67
2019-05-18T20:18:10.267Z,53.24
2019-05-18T20:20:38.754Z,53.33
2019-05-18T20:23:08.593Z,55.21
2019-05-18T20:25:37.153Z,54.89
2019-05-18T20:28:05.729Z,56.81
2019-05-18T20:30:34.205Z,56.45
2019-05-18T20:33:02.636Z,57.57
2019-05-18T20:35:31.074Z,58.00
2019-05-18T20:37:59.531Z,58.96
2019-05-18T20:40:31.456Z,59.51
2019-05-18T20:42:59.915Z,60.84
2019-05-18T20:45:28.387Z,61.06
2019-05-18T20:47:56.867Z,61.29
2019-05-18T20:50:25.290Z,60.65
2019-05-18T20:52:53.739Z,61.25
2019-05-18T20:55:22.209Z,62.00
2019-05-18T20:57:50.635Z,62.02
2019-05-18T21:00:19.211Z,62.69
2019-05-18T21:02:47.648Z,62.73
2019-05-18T21:05:16.443Z,62.91
2019-05-18T21:07:46.414Z,64.04
2019-05-18T21:10:15.087Z,63.43
2019-05-18T21:12:43.518Z,63.11
2019-05-18T21:15:13.163Z,63.93
2019-05-18T21:17:44.718Z,62.96
2019-05-18T21:20:13.261Z,65.47
2019-05-18T21:22:41.719Z,65.20
2019-05-18T21:25:10.883Z,66.15
2019-05-18T21:27:39.343Z,67.04
2019-05-18T21:30:08.043Z,67.53
2019-05-18T21:32:36.499Z,67.37
2019-05-18T21:35:07.090Z,68.92
2019-05-18T21:37:35.527Z,68.10
2019-05-18T21:40:05.353Z,68.50
2019-05-18T21:42:33.833Z,69.18
2019-05-18T21:45:02.345Z,69.03
2019-05-18T21:47:30.801Z,68.88
2019-05-18T21:49:59.261Z,68.00
2019-05-18T21:52:27.797Z,68.43
2019-05-18T21:54:56.274Z,68.40
2019-05-18T21:57:24.685Z,68.25
2019-05-18T21:59:53.113Z,69.29
2019-05-18T22:02:21.555Z,69.66
2019-05-18T22:04:49.973Z,70.13
2019-05-18T22:07:18.412Z,71.26
2019-05-18T22:09:46.855Z,70.88
2019-05-18T22:12:15.281Z,71.81
2019-05-18T22:14:43.731Z,71.43
2019-05-18T22:17:12.150Z,71.16
2019-05-18T22:19:40.589Z,71.56
2019-05-18T22:22:09.001Z,72.10
2019-05-18T22:24:37.481Z,72.27
2019-05-18T22:27:07.540Z,72.87
2019-05-18T22:29:35.986Z,73.54
2019-05-18T22:32:04.416Z,73.91
2019-05-18T22:34:32.950Z,73.58
2019-05-18T22:37:01.365Z,74.96
2019-05-18T22:39:29.817Z,73.74
2019-05-18T22:41:58.248Z,74.20
2019-05-18T22:44:26.753Z,74.76
2019-05-18T22:46:55.230Z,74.91
2019-05-18T22:49:23.680Z,75.45
2019-05-18T22:51:52.098Z,75.40
2019-05-18T22:54:20.551Z,75.95
2019-05-18T22:56:48.964Z,76.02
2019-05-18T22:59:17.417Z,75.38
2019-05-18T23:01:45.873Z,75.42
2019-05-18T23:04:14.342Z,75.97
2019-05-18T23:06:42.766Z,75.32
2019-05-18T23:09:11.186Z,75.11
2019-05-18T23:11:39.643Z,74.90
2019-05-18T23:14:08.069Z,75.16
2019-05-18T23:16:36.507Z,76.42
2019-05-18T23:19:05.109Z,76.72
2019-05-18T23:21:33.567Z,76.38
2019-05-18T23:24:02.018Z,75.67
2019-05-18T23:26:30.458Z,76.50
2019-05-18T23:29:00.430Z,75.83
2019-05-18T23:31:28.922Z,75.85
2019-05-18T23:33:59.077Z,76.27
2019-05-18T23:36:27.478Z,76.42
2019-05-18T23:38:55.915Z,77.03
2019-05-18T23:41:24.374Z,76.46
2019-05-18T23:43:52.990Z,75.98
2019-05-18T23:46:21.519Z,77.48
2019-05-18T23:48:49.954Z,76.61
2019-05-18T23:51:18.388Z,77.47
2019-05-18T23:53:46.824Z,78.00
2019-05-18T23:56:15.339Z,77.03
2019-05-18T23:58:43.842Z,76.86
